createdAt,value
2019-05-12T00:00:22.773Z,71.64
2019-05-12T00:02:51.840Z,71.84
2019-05-12T00:05:20.965Z,72.02
2019-05-12T00:07:50.416Z,71.99
2019-05-12T00:10:19.595Z,72.23
2019-05-12T00:12:48.736Z,72.06
2019-05-12T00:15:19.496Z,72.12
2019-05-12T00:17:50.036Z,72.40
2019-05-12T00:20:19.199Z,71.95
2019-05-12T00:22:52.283Z,72.30
2019-05-12T00:25:21.327Z,72.90
2019-05-12T00:27:50.476Z,72.73
2019-05-12T00:30:35.331Z,73.02
2019-05-12T00:33:04.869Z,73.17
2019-05-12T00:35:33.995Z,73.43
2019-05-12T00:38:03.709Z,73.03
2019-05-12T00:40:33.186Z,73.29
2019-05-12T00:43:04.679Z,73.04
2019-05-12T00:45:33.829Z,73.29
2019-05-12T00:48:03.638Z,73.60
2019-05-12T00:50:32.939Z,73.40
2019-05-12T00:53:02.089Z,73.29
2019-05-12T00:55:32.210Z,72.90
2019-05-12T00:58:03.026Z,73.67
2019-05-12T01:00:32.099Z,73.10
2019-05-12T01:03:01.161Z,73.55
2019-05-12T01:05:31.660Z,73.55
2019-05-12T01:08:09.026Z,74.51
2019-05-12T01:10:39.263Z,73.99
2019-05-12T01:13:08.946Z,75.00
2019-05-12T01:15:38.298Z,74.60
2019-05-12T01:18:09.448Z,74.64
2019-05-12T01:20:39.672Z,74.75
2019-05-12T01:23:09.101Z,74.55
2019-05-12T01:25:39.577Z,74.53
2019-05-12T01:28:09.032Z,74.80
2019-05-12T01:30:39.118Z,74.68
2019-05-12T01:33:09.683Z,74.71
2019-05-12T01:35:39.275Z,74.83
2019-05-12T01:38:08.615Z,75.43
2019-05-12T01:40:39.375Z,75.03
2019-05-12T01:43:09.014Z,75.32
2019-05-12T01:45:38.518Z,74.94
2019-05-12T01:48:09.194Z,74.81
2019-05-12T01:50:40.089Z,74.89
2019-05-12T01:53:09.370Z,74.39
2019-05-12T01:55:39.145Z,75.18
2019-05-12T01:58:08.811Z,75.29
2019-05-12T02:00:39.040Z,75.56
2019-05-12T02:03:09.422Z,75.19
2019-05-12T02:05:42.048Z,75.48
2019-05-12T02:08:15.563Z,75.56
2019-05-12T02:10:44.663Z,76.20
2019-05-12T02:13:13.728Z,75.60
2019-05-12T02:15:43.083Z,75.56
2019-05-12T02:18:12.180Z,75.79
2019-05-12T02:20:41.674Z,75.85
2019-05-12T02:23:10.720Z,75.80
2019-05-12T02:25:40.657Z,75.87
2019-05-12T02:28:09.769Z,75.98
2019-05-12T02:30:41.534Z,76.23
2019-05-12T02:33:09.659Z,75.82
2019-05-12T02:35:39.123Z,75.51
2019-05-12T02:38:08.157Z,75.99
2019-05-12T02:40:37.239Z,75.98
2019-05-12T02:43:06.407Z,75.41
2019-05-12T02:45:36.192Z,75.53
2019-05-12T02:48:06.051Z,74.84
2019-05-12T02:50:37.148Z,74.14
2019-05-12T02:53:07.059Z,74.75
2019-05-12T02:55:36.270Z,74.42
2019-05-12T02:58:08.292Z,74.24
2019-05-12T03:00:37.704Z,74.18
2019-05-12T03:03:08.729Z,74.09
2019-05-12T03:05:39.320Z,73.44
2019-05-12T03:08:08.411Z,73.26
2019-05-12T03:10:37.477Z,72.95
2019-05-12T03:13:06.541Z,72.48
2019-05-12T03:15:37.256Z,72.57
2019-05-12T03:18:09.481Z,73.17
2019-05-12T03:20:38.535Z,72.92
2019-05-12T03:23:07.876Z,72.84
2019-05-12T03:25:37.454Z,73.13
2019-05-12T03:28:08.404Z,72.85
2019-05-12T03:30:39.809Z,73.57
2019-05-12T03:33:10.864Z,73.44
2019-05-12T03:35:44.240Z,73.24
2019-05-12T03:38:10.248Z,72.93
2019-05-12T03:40:39.299Z,72.58
2019-05-12T03:43:08.748Z,72.83
2019-05-12T03:45:37.848Z,72.85
2019-05-12T03:48:06.900Z,73.14
2019-05-12T03:50:36.485Z,72.84
2019-05-12T03:53:10.213Z,72.65
2019-05-12T03:55:42.008Z,72.13
2019-05-12T03:58:07.361Z,72.21
2019-05-12T04:00:36.696Z,71.59
2019-05-12T04:03:07.171Z,70.19
2019-05-12T04:05:36.426Z,69.17
2019-05-12T04:08:06.422Z,69.32
2019-05-12T04:10:36.676Z,68.50
2019-05-12T04:13:06.450Z,68.91
2019-05-12T04:15:35.998Z,68.92
2019-05-12T04:18:07.113Z,68.70
2019-05-12T04:20:36.610Z,68.97
2019-05-12T04:23:07.135Z,69.12
2019-05-12T04:25:51.637Z,68.50
2019-05-12T04:28:07.377Z,69.05
2019-05-12T04:30:37.348Z,69.11
2019-05-12T04:33:06.416Z,69.71
2019-05-12T04:35:35.977Z,69.55
2019-05-12T04:38:06.173Z,69.04
2019-05-12T04:40:36.425Z,70.58
2019-05-12T04:43:06.775Z,70.14
2019-05-12T04:45:36.251Z,70.18
2019-05-12T04:48:08.340Z,70.56
2019-05-12T04:50:37.421Z,70.81
2019-05-12T04:53:07.094Z,71.18
2019-05-12T04:55:36.600Z,70.55
2019-05-12T04:58:06.371Z,70.58
2019-05-12T05:00:35.997Z,70.45
2019-05-12T05:03:06.001Z,70.55
2019-05-12T05:05:36.334Z,69.59
2019-05-12T05:08:05.659Z,69.10
2019-05-12T05:10:35.056Z,68.77
2019-05-12T05:13:05.434Z,68.05
2019-05-12T05:15:35.465Z,68.27
2019-05-12T05:18:07.691Z,68.09
2019-05-12T05:20:37.169Z,67.93
2019-05-12T05:23:06.246Z,68.09
2019-05-12T05:25:35.609Z,68.20
2019-05-12T05:28:05.475Z,67.66
2019-05-12T05:30:34.559Z,67.25
2019-05-12T05:33:04.942Z,67.21
2019-05-12T05:35:39.291Z,66.62
2019-05-12T05:38:05.858Z,66.52
2019-05-12T05:40:35.836Z,65.82
2019-05-12T05:43:12.385Z,66.08
2019-05-12T05:45:36.252Z,66.32
2019-05-12T05:48:10.074Z,66.47
2019-05-12T05:50:37.336Z,66.97
2019-05-12T05:53:09.243Z,66.79
2019-05-12T05:55:37.557Z,66.20
2019-05-12T05:58:10.235Z,66.59
2019-05-12T06:00:39.482Z,66.79
2019-05-12T06:03:14.860Z,66.13
2019-05-12T06:05:39.529Z,66.15
2019-05-12T06:08:15.144Z,65.67
2019-05-12T06:10:40.623Z,66.02
2019-05-12T06:13:09.725Z,66.27
2019-05-12T06:15:41.029Z,65.64
2019-05-12T06:18:13.456Z,66.71
2019-05-12T06:20:44.382Z,66.74
2019-05-12T06:23:14.964Z,65.51
2019-05-12T06:25:47.449Z,66.09
2019-05-12T06:28:14.986Z,66.09
2019-05-12T06:30:46.997Z,65.57
2019-05-12T06:33:14.854Z,66.00
2019-05-12T06:35:45.496Z,65.81
2019-05-12T06:38:15.267Z,64.61
2019-05-12T06:40:45.567Z,64.97
2019-05-12T06:43:14.790Z,65.48
2019-05-12T06:45:45.718Z,65.25
2019-05-12T06:48:19.399Z,65.58
2019-05-12T06:50:45.591Z,65.88
2019-05-12T06:53:15.082Z,65.53
2019-05-12T06:55:44.172Z,65.46
2019-05-12T06:58:13.955Z,65.84
2019-05-12T07:00:43.947Z,65.89
2019-05-12T07:03:14.273Z,65.69
2019-05-12T07:05:45.308Z,65.01
2019-05-12T07:08:17.856Z,65.54
2019-05-12T07:10:51.517Z,65.58
2019-05-12T07:13:23.016Z,64.00
2019-05-12T07:15:48.892Z,63.27
2019-05-12T07:18:25.937Z,63.36
2019-05-12T07:20:49.563Z,61.76
2019-05-12T07:23:19.819Z,61.84
2019-05-12T07:25:49.715Z,61.99
2019-05-12T07:28:18.765Z,61.22
2019-05-12T07:30:47.820Z,61.45
2019-05-12T07:33:16.947Z,61.34
2019-05-12T07:35:46.121Z,60.85
2019-05-12T07:38:21.330Z,61.49
2019-05-12T07:40:47.974Z,61.38
2019-05-12T07:43:20.441Z,60.98
2019-05-12T07:45:56.606Z,60.66
2019-05-12T07:48:23.217Z,61.69
2019-05-12T07:50:56.384Z,61.61
2019-05-12T07:53:23.432Z,61.73
2019-05-12T07:55:53.256Z,61.64
2019-05-12T07:58:23.993Z,61.09
2019-05-12T08:01:01.832Z,61.51
2019-05-12T08:03:24.368Z,60.81
2019-05-12T08:05:57.568Z,60.86
2019-05-12T08:08:25.142Z,60.80
2019-05-12T08:10:56.071Z,60.90
2019-05-12T08:13:25.207Z,60.83
2019-05-12T08:15:56.428Z,60.90
2019-05-12T08:18:30.488Z,60.68
2019-05-12T08:20:59.767Z,61.22
2019-05-12T08:23:27.653Z,60.67
2019-05-12T08:25:56.809Z,61.10
2019-05-12T08:28:34.690Z,60.69
2019-05-12T08:30:57.636Z,61.34
2019-05-12T08:33:27.935Z,60.82
2019-05-12T08:36:05.503Z,61.44
2019-05-12T08:38:28.939Z,61.92
2019-05-12T08:41:07.290Z,61.31
2019-05-12T08:43:40.599Z,60.83
2019-05-12T08:46:12.339Z,60.37
2019-05-12T08:48:38.750Z,60.14
2019-05-12T08:51:14.184Z,60.39
2019-05-12T08:53:53.891Z,60.47
2019-05-12T08:56:23.975Z,59.95
2019-05-12T08:58:54.318Z,59.60
2019-05-12T09:01:29.081Z,59.90
2019-05-12T09:03:53.506Z,60.12
2019-05-12T09:06:23.729Z,59.38
2019-05-12T09:08:54.227Z,59.47
2019-05-12T09:11:24.398Z,58.58
2019-05-12T09:14:00.470Z,58.75
2019-05-12T09:16:25.999Z,58.59
2019-05-12T09:18:55.445Z,58.33
2019-05-12T09:21:31.923Z,58.07
2019-05-12T09:23:57.949Z,58.54
2019-05-12T09:26:28.682Z,57.88
2019-05-12T09:28:58.036Z,57.55
2019-05-12T09:31:29.400Z,56.64
2019-05-12T09:34:05.929Z,56.45
2019-05-12T09:36:29.135Z,56.34
2019-05-12T09:39:10.803Z,56.47
2019-05-12T09:41:43.940Z,56.71
2019-05-12T09:44:15.049Z,56.25
2019-05-12T09:46:44.924Z,56.09
2019-05-12T09:49:17.030Z,57.30
2019-05-12T09:52:05.820Z,56.46
2019-05-12T09:54:40.815Z,56.58
2019-05-12T09:57:06.861Z,56.67
2019-05-12T09:59:35.977Z,56.83
2019-05-12T10:02:10.437Z,56.36
2019-05-12T10:04:38.289Z,55.54
2019-05-12T10:07:07.417Z,54.96
2019-05-12T10:09:36.960Z,54.78
2019-05-12T10:12:06.381Z,55.60
2019-05-12T10:14:35.489Z,54.91
2019-05-12T10:17:04.967Z,55.46
2019-05-12T10:19:34.129Z,54.50
2019-05-12T10:22:06.085Z,54.39
2019-05-12T10:24:41.574Z,53.57
2019-05-12T10:27:06.488Z,52.82
2019-05-12T10:29:35.968Z,53.12
2019-05-12T10:32:13.362Z,52.46
2019-05-12T10:34:44.422Z,52.19
2019-05-12T10:37:13.772Z,51.74
2019-05-12T10:39:43.405Z,51.21
2019-05-12T10:42:13.741Z,50.58
2019-05-12T10:44:43.738Z,50.49
2019-05-12T10:47:13.982Z,50.27
2019-05-12T10:49:44.152Z,50.44
2019-05-12T10:52:13.891Z,50.28
2019-05-12T10:54:43.529Z,49.84
2019-05-12T10:57:14.096Z,48.91
2019-05-12T10:59:45.292Z,48.84
2019-05-12T11:02:14.782Z,48.74
2019-05-12T11:04:44.126Z,48.76
2019-05-12T11:07:13.616Z,48.69
2019-05-12T11:09:43.991Z,47.37
2019-05-12T11:12:13.900Z,45.28
2019-05-12T11:14:44.195Z,44.37
2019-05-12T11:17:24.512Z,45.40
2019-05-12T11:20:00.160Z,44.54
2019-05-12T11:22:30.249Z,45.15
2019-05-12T11:24:59.453Z,44.97
2019-05-12T11:27:28.621Z,44.56
2019-05-12T11:29:58.197Z,43.78
2019-05-12T11:32:28.719Z,43.64
2019-05-12T11:34:58.050Z,43.72
2019-05-12T11:37:29.096Z,43.93
2019-05-12T11:39:58.224Z,43.90
2019-05-12T11:42:27.283Z,44.28
2019-05-12T11:44:56.780Z,44.57
2019-05-12T11:47:26.101Z,44.23
2019-05-12T11:49:58.473Z,45.24
2019-05-12T11:52:27.181Z,44.72
2019-05-12T11:54:56.270Z,43.72
2019-05-12T11:57:30.108Z,44.06
2019-05-12T12:00:01.109Z,43.97
2019-05-12T12:02:30.357Z,44.03
2019-05-12T12:04:59.127Z,43.20
2019-05-12T12:07:28.589Z,43.03
2019-05-12T12:09:59.580Z,43.00
2019-05-12T12:12:28.776Z,42.24
2019-05-12T12:14:58.358Z,41.52
2019-05-12T12:17:35.163Z,40.10
2019-05-12T12:20:00.189Z,38.90
2019-05-12T12:22:29.987Z,38.19
2019-05-12T12:25:04.671Z,38.01
2019-05-12T12:27:33.053Z,37.87
2019-05-12T12:30:16.140Z,37.05
2019-05-12T12:32:35.219Z,35.98
2019-05-12T12:35:07.349Z,35.23
2019-05-12T12:37:35.500Z,34.37
2019-05-12T12:40:06.598Z,35.17
2019-05-12T12:42:41.698Z,34.75
2019-05-12T12:45:24.393Z,33.35
2019-05-12T12:47:54.109Z,32.50
2019-05-12T12:50:26.232Z,31.99
2019-05-12T12:52:55.471Z,31.95
2019-05-12T12:55:25.015Z,32.55
2019-05-12T13:00:32.286Z,31.35
2019-05-12T13:02:56.379Z,30.47
2019-05-12T13:05:25.567Z,29.57
2019-05-12T13:07:54.709Z,29.59
2019-05-12T13:10:24.927Z,29.10
2019-05-12T13:12:58.682Z,28.65
2019-05-12T13:15:24.932Z,27.53
2019-05-12T13:17:54.455Z,26.01
2019-05-12T13:20:28.766Z,26.04
2019-05-12T13:22:57.961Z,26.01
2019-05-12T13:25:27.518Z,25.31
2019-05-12T13:28:01.595Z,25.08
2019-05-12T13:30:43.539Z,25.08
2019-05-12T13:33:03.451Z,25.45
2019-05-12T13:35:34.177Z,24.54
2019-05-12T13:38:06.359Z,23.48
2019-05-12T13:40:39.197Z,23.04
2019-05-12T13:43:09.317Z,23.19
2019-05-12T13:45:37.649Z,23.94
2019-05-12T13:48:09.647Z,23.11
2019-05-12T13:50:37.937Z,22.46
2019-05-12T13:53:09.960Z,22.05
2019-05-12T13:55:45.515Z,21.63
2019-05-12T13:58:10.408Z,21.45
2019-05-12T14:00:41.365Z,20.77
2019-05-12T14:03:10.854Z,21.43
2019-05-12T14:05:41.118Z,21.47
2019-05-12T14:08:10.899Z,21.60
2019-05-12T14:10:44.702Z,20.64
2019-05-12T14:13:14.082Z,21.78
2019-05-12T14:15:44.274Z,21.67
2019-05-12T14:18:16.382Z,21.00
2019-05-12T14:20:45.214Z,19.99
2019-05-12T14:23:14.931Z,19.73
2019-05-12T14:25:44.119Z,18.99
2019-05-12T14:28:15.987Z,18.81
2019-05-12T14:30:49.688Z,18.41
2019-05-12T14:33:18.346Z,18.28
2019-05-12T14:35:48.923Z,18.91
2019-05-12T14:38:19.278Z,17.35
2019-05-12T14:40:49.620Z,17.71
2019-05-12T14:43:21.347Z,17.41
2019-05-12T14:45:49.652Z,16.64
2019-05-12T14:48:23.091Z,16.69
2019-05-12T14:50:55.608Z,17.43
2019-05-12T14:53:25.456Z,17.08
2019-05-12T14:55:54.653Z,17.24
2019-05-12T14:58:26.410Z,15.75
2019-05-12T15:00:57.963Z,16.77
2019-05-12T15:03:26.412Z,17.43
2019-05-12T15:05:56.893Z,16.86
2019-05-12T15:08:36.220Z,16.21
2019-05-12T15:10:57.709Z,16.35
2019-05-12T15:13:27.169Z,15.95
2019-05-12T15:16:00.111Z,15.53
2019-05-12T15:18:28.028Z,16.03
2019-05-12T15:20:58.860Z,15.91
2019-05-12T15:23:32.476Z,16.47
2019-05-12T15:25:59.205Z,17.94
2019-05-12T15:28:31.025Z,18.57
2019-05-12T15:31:00.690Z,17.95
2019-05-12T15:33:29.906Z,17.33
2019-05-12T15:35:59.472Z,16.90
2019-05-12T15:38:28.604Z,17.69
2019-05-12T15:41:10.672Z,18.32
2019-05-12T15:43:44.248Z,18.69
2019-05-12T15:46:09.360Z,18.83
2019-05-12T15:48:38.467Z,18.80
2019-05-12T15:51:08.734Z,19.12
2019-05-12T15:53:37.964Z,18.26
2019-05-12T15:56:15.013Z,18.33
2019-05-12T15:58:38.420Z,18.55
2019-05-12T16:01:08.481Z,20.24
2019-05-12T16:06:16.745Z,20.85
2019-05-12T16:08:47.466Z,20.97
2019-05-12T16:11:16.942Z,22.43
2019-05-12T16:13:53.894Z,23.13
2019-05-12T16:16:16.987Z,22.88
2019-05-12T16:18:50.567Z,23.05
2019-05-12T16:21:17.266Z,23.92
2019-05-12T16:23:46.339Z,24.24
2019-05-12T16:26:15.852Z,24.00
2019-05-12T16:28:45.227Z,24.40
2019-05-12T16:31:14.647Z,24.06
2019-05-12T16:33:44.269Z,24.56
2019-05-12T16:36:14.633Z,23.84
2019-05-12T16:38:44.520Z,24.24
2019-05-12T16:41:14.398Z,24.05
2019-05-12T16:43:44.197Z,24.59
2019-05-12T16:46:14.263Z,24.59
2019-05-12T16:48:48.186Z,24.55
2019-05-12T16:51:16.861Z,25.52
2019-05-12T16:53:46.064Z,24.70
2019-05-12T16:56:15.254Z,24.86
2019-05-12T16:58:44.377Z,24.88
2019-05-12T17:01:14.563Z,25.15
2019-05-12T17:03:44.649Z,25.19
2019-05-12T17:06:14.400Z,25.55
2019-05-12T17:08:44.899Z,25.59
2019-05-12T17:11:26.466Z,25.80
2019-05-12T17:13:47.440Z,26.14
2019-05-12T17:16:16.723Z,26.62
2019-05-12T17:18:47.357Z,27.28
2019-05-12T17:21:16.612Z,27.29
2019-05-12T17:23:45.957Z,27.69
2019-05-12T17:26:15.058Z,27.85
2019-05-12T17:28:44.816Z,28.18
2019-05-12T17:31:14.110Z,28.29
2019-05-12T17:33:43.466Z,29.23
2019-05-12T17:36:17.727Z,29.51
2019-05-12T17:38:44.315Z,29.88
2019-05-12T17:41:17.468Z,30.33
2019-05-12T17:43:56.926Z,30.31
2019-05-12T17:46:18.268Z,31.39
2019-05-12T17:48:47.787Z,31.22
2019-05-12T17:51:20.293Z,31.72
2019-05-12T17:53:49.051Z,31.17
2019-05-12T17:56:27.363Z,31.15
2019-05-12T17:58:54.913Z,30.62
2019-05-12T18:01:31.189Z,30.69
2019-05-12T18:03:55.484Z,30.86
2019-05-12T18:06:26.927Z,30.44
2019-05-12T18:08:56.212Z,30.86
2019-05-12T18:11:25.990Z,31.61
2019-05-12T18:14:02.153Z,31.44
2019-05-12T18:16:26.722Z,31.08
2019-05-12T18:18:57.570Z,31.07
2019-05-12T18:21:31.003Z,31.52
2019-05-12T18:24:00.400Z,31.47
2019-05-12T18:26:33.841Z,32.77
2019-05-12T18:29:04.141Z,32.40
2019-05-12T18:31:34.610Z,32.87
2019-05-12T18:34:20.001Z,32.53
2019-05-12T18:36:58.098Z,33.11
2019-05-12T18:39:21.108Z,33.18
2019-05-12T18:41:50.441Z,33.19
2019-05-12T18:44:28.912Z,33.17
2019-05-12T18:46:53.786Z,33.19
2019-05-12T18:49:23.822Z,33.21
2019-05-12T18:51:57.255Z,33.22
2019-05-12T18:54:26.610Z,33.54
2019-05-12T18:57:02.350Z,33.55
2019-05-12T18:59:28.218Z,33.56
2019-05-12T19:01:58.150Z,33.33
2019-05-12T19:04:39.810Z,33.29
2019-05-12T19:07:06.540Z,33.81
2019-05-12T19:09:36.858Z,34.04
2019-05-12T19:12:15.704Z,33.96
2019-05-12T19:14:40.457Z,34.88
2019-05-12T19:17:10.036Z,34.68
2019-05-12T19:19:39.444Z,35.16
2019-05-12T19:22:09.683Z,35.14
2019-05-12T19:24:39.202Z,35.36
2019-05-12T19:27:16.652Z,35.80
2019-05-12T19:29:48.363Z,35.40
2019-05-12T19:32:15.170Z,35.38
2019-05-12T19:34:46.280Z,35.54
2019-05-12T19:37:28.644Z,36.25
2019-05-12T19:40:22.318Z,35.71
2019-05-12T19:43:02.002Z,35.52
2019-05-12T19:45:26.802Z,35.43
2019-05-12T19:47:56.344Z,35.58
2019-05-12T19:50:25.780Z,35.81
2019-05-12T19:52:56.619Z,36.07
2019-05-12T19:55:26.481Z,35.79
2019-05-12T19:57:56.280Z,35.95
2019-05-12T20:00:25.660Z,36.03
2019-05-12T20:02:55.178Z,35.85
2019-05-12T20:05:27.806Z,36.22
2019-05-12T20:08:00.995Z,36.00
2019-05-12T20:10:36.094Z,36.51
2019-05-12T20:13:03.947Z,36.62
2019-05-12T20:15:39.000Z,36.82
2019-05-12T20:18:05.257Z,37.21
2019-05-12T20:20:41.685Z,37.07
2019-05-12T20:23:09.022Z,37.01
2019-05-12T20:25:38.866Z,37.26
2019-05-12T20:28:11.406Z,37.51
2019-05-12T20:30:39.282Z,37.84
2019-05-12T20:33:08.438Z,37.23
2019-05-12T20:35:45.075Z,37.96
2019-05-12T20:38:15.126Z,38.20
2019-05-12T20:40:44.296Z,38.19
2019-05-12T20:43:15.178Z,38.31
2019-05-12T20:45:45.776Z,38.60
2019-05-12T20:48:19.831Z,38.15
2019-05-12T20:50:45.903Z,38.82
2019-05-12T20:53:31.843Z,39.10
2019-05-12T20:56:00.591Z,38.61
2019-05-12T20:58:37.493Z,38.79
2019-05-12T21:01:07.762Z,38.43
2019-05-12T21:03:39.743Z,39.22
2019-05-12T21:06:08.903Z,39.22
2019-05-12T21:08:37.969Z,39.14
2019-05-12T21:11:10.615Z,39.48
2019-05-12T21:13:40.944Z,40.75
2019-05-12T21:16:17.489Z,40.06
2019-05-12T21:18:47.957Z,39.92
2019-05-12T21:21:14.154Z,40.40
2019-05-12T21:23:45.592Z,40.68
2019-05-12T21:26:13.798Z,40.04
2019-05-12T21:28:48.298Z,40.56
2019-05-12T21:31:20.634Z,39.81
2019-05-12T21:33:48.641Z,40.68
2019-05-12T21:36:24.219Z,40.91
2019-05-12T21:38:49.766Z,41.05
2019-05-12T21:41:21.775Z,41.65
2019-05-12T21:43:49.651Z,41.38
2019-05-12T21:46:18.744Z,42.07
2019-05-12T21:48:47.945Z,42.18
2019-05-12T21:51:20.001Z,43.19
2019-05-12T21:53:50.493Z,42.89
2019-05-12T21:56:20.768Z,43.22
2019-05-12T21:58:53.722Z,42.62
2019-05-12T22:01:21.089Z,43.40
2019-05-12T22:03:57.805Z,43.35
2019-05-12T22:06:24.080Z,43.11
2019-05-12T22:09:01.058Z,43.72
2019-05-12T22:11:24.515Z,43.91
2019-05-12T22:13:59.829Z,44.01
2019-05-12T22:16:29.546Z,44.38
2019-05-12T22:18:59.365Z,44.96
2019-05-12T22:21:27.721Z,44.67
2019-05-12T22:23:56.836Z,44.77
2019-05-12T22:26:30.566Z,45.03
2019-05-12T22:28:56.952Z,44.85
2019-05-12T22:31:26.369Z,44.75
2019-05-12T22:33:56.366Z,44.88
2019-05-12T22:36:29.798Z,44.92
2019-05-12T22:39:00.945Z,45.34
2019-05-12T22:41:30.327Z,45.61
2019-05-12T22:43:58.370Z,46.01
2019-05-12T22:46:31.239Z,45.58
2019-05-12T22:48:58.375Z,45.06
2019-05-12T22:51:27.755Z,45.13
2019-05-12T22:54:00.491Z,45.53
2019-05-12T22:56:27.742Z,45.60
2019-05-12T22:59:00.153Z,45.63
2019-05-12T23:01:34.572Z,45.88
2019-05-12T23:04:03.673Z,46.27
2019-05-12T23:06:35.833Z,46.29
2019-05-12T23:09:04.575Z,46.42
2019-05-12T23:11:37.784Z,46.71
2019-05-12T23:14:05.413Z,47.43
2019-05-12T23:16:34.806Z,46.81
2019-05-12T23:19:10.357Z,46.62
2019-05-12T23:21:35.648Z,46.21
2019-05-12T23:24:06.180Z,46.37
2019-05-12T23:26:41.723Z,46.22
2019-05-12T23:29:06.064Z,47.04
2019-05-12T23:31:36.524Z,47.49
2019-05-12T23:34:06.425Z,47.43
2019-05-12T23:36:39.170Z,47.97
2019-05-12T23:39:07.582Z,47.66
2019-05-12T23:41:36.774Z,47.38
2019-05-12T23:44:05.924Z,47.94
2019-05-12T23:46:35.267Z,48.02
2019-05-12T23:49:04.340Z,49.37
2019-05-12T23:51:34.070Z,49.42
2019-05-12T23:54:06.002Z,49.50
2019-05-12T23:56:36.147Z,49.84
2019-05-12T23:59:05.377Z,50.12
